createdAt,value
2023-04-01T00:01:01.262Z,1.00
2023-04-01T00:03:30.207Z,1.00
2023-04-01T00:05:59.083Z,1.00
2023-04-01T00:08:27.806Z,1.00
2023-04-01T00:10:56.123Z,1.00
2023-04-01T00:13:24.314Z,1.00
2023-04-01T00:15:51.987Z,1.00
2023-04-01T00:18:19.635Z,1.00
2023-04-01T00:20:49.891Z,1.00
2023-04-01T00:23:19.478Z,1.00
2023-04-01T00:25:48.865Z,1.00
2023-04-01T00:28:20.456Z,1.00
2023-04-01T00:30:48.405Z,1.00
2023-04-01T00:33:16.581Z,1.00
2023-04-01T00:35:44.318Z,1.00
2023-04-01T00:38:14.819Z,1.00
2023-04-01T00:40:45.361Z,1.00
2023-04-01T00:43:16.312Z,1.00
2023-04-01T00:45:44.807Z,1.00
2023-04-01T00:48:15.401Z,1.00
2023-04-01T00:50:47.659Z,1.00
2023-04-01T00:53:16.973Z,1.00
2023-04-01T00:55:52.697Z,1.00
2023-04-01T00:58:22.659Z,1.00
2023-04-01T01:00:52.422Z,1.00
2023-04-01T01:03:20.391Z,1.00
2023-04-01T01:06:06.827Z,1.00
2023-04-01T01:09:01.546Z,1.00
2023-04-01T01:11:44.185Z,1.00
2023-04-01T01:14:46.822Z,1.00
2023-04-01T01:17:37.069Z,1.00
2023-04-01T01:20:27.077Z,1.00
2023-04-01T01:23:19.911Z,1.00
2023-04-01T01:26:35.007Z,1.00
2023-04-01T01:29:28.888Z,1.00
2023-04-01T01:32:16.106Z,1.00
2023-04-01T01:35:08.570Z,1.00
2023-04-01T01:37:38.119Z,1.00
2023-04-01T01:40:09.039Z,1.00
2023-04-01T01:42:41.157Z,1.00
2023-04-01T01:45:11.016Z,1.00
2023-04-01T01:47:38.981Z,1.00
2023-04-01T01:50:08.152Z,1.00
2023-04-01T01:52:35.953Z,1.00
2023-04-01T01:55:04.573Z,1.00
2023-04-01T01:57:38.881Z,1.00
2023-04-01T02:00:14.545Z,1.00
2023-04-01T02:02:47.000Z,1.00
2023-04-01T02:05:21.950Z,1.00
2023-04-01T02:08:09.422Z,1.00
2023-04-01T02:10:41.369Z,1.00
2023-04-01T02:13:22.909Z,1.00
2023-04-01T02:15:56.511Z,1.00
2023-04-01T02:18:25.455Z,1.00
2023-04-01T02:20:53.463Z,1.00
2023-04-01T02:23:21.377Z,1.00
2023-04-01T02:25:49.228Z,1.00
2023-04-01T02:28:20.833Z,1.00
2023-04-01T02:30:50.785Z,1.00
2023-04-01T02:33:19.902Z,1.00
2023-04-01T02:35:48.162Z,1.00
2023-04-01T02:38:16.769Z,1.00
2023-04-01T02:40:48.571Z,1.00
2023-04-01T02:43:17.254Z,1.00
2023-04-01T02:45:44.982Z,1.00
2023-04-01T02:48:13.748Z,1.00
2023-04-01T02:50:41.476Z,1.00
2023-04-01T02:53:09.343Z,1.00
2023-04-01T02:55:36.979Z,1.00
2023-04-01T02:58:04.934Z,1.00
2023-04-01T03:00:32.614Z,1.00
2023-04-01T03:03:01.149Z,1.00
2023-04-01T03:05:29.356Z,1.00
2023-04-01T03:07:57.089Z,1.00
2023-04-01T03:10:24.807Z,1.00
2023-04-01T03:12:52.490Z,1.00
2023-04-01T03:15:20.301Z,1.00
2023-04-01T03:17:48.147Z,1.00
2023-04-01T03:20:16.003Z,19.60
2023-04-01T03:22:43.713Z,37.10
2023-04-01T03:25:11.916Z,28.40
2023-04-01T03:27:39.866Z,39.10
2023-04-01T03:30:08.339Z,35.60
2023-04-01T03:32:36.016Z,4.50
2023-04-01T03:35:05.930Z,5.10
2023-04-01T03:37:33.610Z,19.10
2023-04-01T03:40:01.237Z,31.60
2023-04-01T03:42:28.881Z,17.80
2023-04-01T03:44:56.475Z,35.60
2023-04-01T03:47:24.161Z,36.20
2023-04-01T03:49:51.794Z,36.40
2023-04-01T03:52:19.379Z,42.10
2023-04-01T03:54:47.099Z,49.20
2023-04-01T03:57:15.176Z,27.60
2023-04-01T03:59:42.846Z,48.10
2023-04-01T04:02:10.654Z,63.00
2023-04-01T04:04:38.338Z,39.10
2023-04-01T04:07:05.970Z,38.80
2023-04-01T04:09:34.240Z,43.60
2023-04-01T04:12:02.585Z,46.10
2023-04-01T04:14:30.229Z,54.20
2023-04-01T04:16:58.026Z,38.60
2023-04-01T04:19:25.666Z,61.80
2023-04-01T04:21:53.294Z,73.80
2023-04-01T04:24:20.869Z,86.00
2023-04-01T04:26:48.401Z,88.40
2023-04-01T04:29:15.981Z,93.30
2023-04-01T04:31:44.359Z,88.40
2023-04-01T04:34:12.092Z,83.60
2023-04-01T04:36:39.737Z,92.90
2023-04-01T04:39:07.340Z,94.50
2023-04-01T04:41:36.611Z,81.90
2023-04-01T04:44:05.871Z,76.60
2023-04-01T04:46:33.697Z,65.90
2023-04-01T04:49:01.328Z,27.60
2023-04-01T04:51:29.025Z,43.40
2023-04-01T04:53:56.680Z,46.60
2023-04-01T04:56:26.271Z,25.20
2023-04-01T04:58:55.156Z,25.70
2023-04-01T05:01:23.632Z,19.00
2023-04-01T05:03:52.485Z,1.00
2023-04-01T05:06:23.482Z,1.60
2023-04-01T05:08:51.373Z,1.00
2023-04-01T05:11:21.390Z,1.00
2023-04-01T05:13:49.046Z,1.00
2023-04-01T05:16:19.340Z,1.00
2023-04-01T05:18:47.892Z,1.00
2023-04-01T05:21:16.305Z,1.00
2023-04-01T05:23:44.508Z,1.00
2023-04-01T05:26:14.528Z,1.00
2023-04-01T05:28:42.463Z,1.00
2023-04-01T05:31:10.360Z,1.00
2023-04-01T05:33:38.096Z,1.00
2023-04-01T05:36:08.876Z,1.00
2023-04-01T05:38:36.856Z,1.00
2023-04-01T05:41:05.077Z,1.00
2023-04-01T05:43:32.747Z,1.00
2023-04-01T05:46:00.546Z,1.00
2023-04-01T05:48:28.152Z,1.00
2023-04-01T05:50:55.906Z,1.00
2023-04-01T05:53:23.592Z,1.00
2023-04-01T05:55:51.238Z,1.00
2023-04-01T05:58:19.090Z,1.00
2023-04-01T06:00:47.863Z,1.00
2023-04-01T06:03:15.782Z,1.00
2023-04-01T06:05:44.997Z,1.00
2023-04-01T06:08:16.752Z,1.00
2023-04-01T06:10:54.137Z,1.00
2023-04-01T06:13:58.474Z,1.00
2023-04-01T06:16:39.582Z,1.00
2023-04-01T06:19:33.873Z,1.00
2023-04-01T06:22:30.999Z,1.00
2023-04-01T06:25:22.815Z,26.30
2023-04-01T06:28:15.473Z,26.40
2023-04-01T06:31:02.197Z,27.10
2023-04-01T06:33:48.756Z,1.00
2023-04-01T06:36:32.801Z,1.00
2023-04-01T06:39:17.530Z,13.40
2023-04-01T06:42:14.229Z,8.10
2023-04-01T06:45:05.758Z,1.00
2023-04-01T06:48:34.548Z,1.00
2023-04-01T06:51:10.335Z,1.00
2023-04-01T06:53:54.978Z,1.00
2023-04-01T06:56:27.543Z,1.00
2023-04-01T06:59:09.785Z,1.00
2023-04-01T07:01:43.676Z,1.00
2023-04-01T07:04:33.179Z,1.00
2023-04-01T07:07:07.159Z,1.00
2023-04-01T07:09:48.228Z,1.00
2023-04-01T07:12:27.847Z,1.00
2023-04-01T07:14:57.242Z,1.00
2023-04-01T07:17:34.157Z,1.00
2023-04-01T07:20:27.301Z,1.00
2023-04-01T07:23:01.193Z,1.00
2023-04-01T07:25:52.123Z,1.00
2023-04-01T07:28:19.846Z,1.00
2023-04-01T07:31:08.792Z,1.00
2023-04-01T07:34:10.259Z,1.00
2023-04-01T07:36:46.051Z,1.00
2023-04-01T07:39:31.616Z,1.00
2023-04-01T07:42:33.423Z,1.00
2023-04-01T07:45:14.136Z,1.00
2023-04-01T07:47:53.913Z,1.00
2023-04-01T07:50:35.631Z,1.00
2023-04-01T07:53:20.644Z,1.00
2023-04-01T07:55:48.213Z,1.00
2023-04-01T07:58:29.729Z,1.00
2023-04-01T08:01:03.570Z,1.00
2023-04-01T08:03:45.139Z,1.00
2023-04-01T08:06:26.702Z,1.00
2023-04-01T08:09:10.906Z,1.00
2023-04-01T08:11:59.061Z,1.00
2023-04-01T08:14:49.505Z,1.00
2023-04-01T08:17:30.555Z,1.00
2023-04-01T08:20:04.235Z,1.00
2023-04-01T08:22:44.903Z,1.00
2023-04-01T08:25:21.582Z,1.00
2023-04-01T08:27:56.035Z,1.00
2023-04-01T08:30:44.007Z,1.00
2023-04-01T08:33:29.985Z,1.00
2023-04-01T08:36:17.805Z,6.80
2023-04-01T08:38:52.849Z,76.50
2023-04-01T08:41:45.240Z,97.50
2023-04-01T08:45:06.495Z,99.90
2023-04-01T08:48:09.555Z,99.90
2023-04-01T08:50:44.247Z,99.90
2023-04-01T08:53:27.468Z,99.90
2023-04-01T08:56:14.347Z,99.90
2023-04-01T08:58:51.074Z,99.90
2023-04-01T09:01:27.327Z,99.90
2023-04-01T09:04:18.372Z,99.90
2023-04-01T09:06:53.335Z,99.90
2023-04-01T09:09:46.965Z,99.90
2023-04-01T09:12:23.677Z,99.90
2023-04-01T09:15:19.117Z,99.90
2023-04-01T09:17:58.815Z,98.20
2023-04-01T09:20:47.544Z,97.10
2023-04-01T09:23:49.702Z,99.90
2023-04-01T09:26:27.021Z,99.10
2023-04-01T09:29:36.350Z,99.90
2023-04-01T09:32:42.599Z,45.50
2023-04-01T09:35:43.225Z,1.60
2023-04-01T09:38:24.115Z,1.00
2023-04-01T09:41:13.473Z,1.00
2023-04-01T09:43:58.664Z,1.00
2023-04-01T09:46:45.166Z,1.00
2023-04-01T09:49:33.784Z,1.00
2023-04-01T09:52:16.471Z,1.00
2023-04-01T09:55:21.311Z,1.00
2023-04-01T09:58:25.622Z,1.00
2023-04-01T10:01:29.471Z,99.90
2023-04-01T10:04:12.076Z,1.00
2023-04-01T10:06:45.549Z,1.00
2023-04-01T10:09:28.589Z,1.00
2023-04-01T10:12:37.711Z,99.90
2023-04-01T10:15:20.455Z,1.00
2023-04-01T10:18:25.767Z,99.90
2023-04-01T10:21:18.705Z,1.00
2023-04-01T10:23:49.373Z,1.00
2023-04-01T10:26:26.828Z,1.00
2023-04-01T10:29:06.300Z,99.90
2023-04-01T10:31:52.847Z,1.00
2023-04-01T10:34:20.881Z,1.00
2023-04-01T10:37:00.609Z,99.90
2023-04-01T10:39:34.410Z,99.90
2023-04-01T10:42:10.717Z,50.70
2023-04-01T10:45:16.237Z,1.00
2023-04-01T10:48:02.312Z,99.90
2023-04-01T10:51:32.897Z,1.00
2023-04-01T10:54:00.596Z,99.90
2023-04-01T10:56:53.740Z,1.00
2023-04-01T10:59:51.843Z,99.90
2023-04-01T11:02:38.446Z,1.00
2023-04-01T11:05:24.532Z,1.00
2023-04-01T11:08:15.897Z,1.00
2023-04-01T11:11:18.558Z,1.00
2023-04-01T11:14:04.341Z,1.00
2023-04-01T11:16:41.339Z,1.00
2023-04-01T11:19:27.966Z,96.50
2023-04-01T11:22:14.236Z,99.90
2023-04-01T11:25:18.708Z,99.90
2023-04-01T11:27:54.913Z,1.00
2023-04-01T11:30:48.115Z,1.00
2023-04-01T11:33:31.483Z,1.00
2023-04-01T11:36:27.101Z,1.00
2023-04-01T11:39:22.509Z,1.00
2023-04-01T11:41:56.012Z,1.00
2023-04-01T11:44:30.338Z,1.00
2023-04-01T11:47:10.188Z,1.00
2023-04-01T11:49:43.068Z,1.00
2023-04-01T11:52:28.564Z,1.00
2023-04-01T11:55:07.885Z,1.00
2023-04-01T11:58:09.361Z,1.00
2023-04-01T12:00:42.250Z,1.00
2023-04-01T12:03:32.023Z,1.00
2023-04-01T12:06:03.262Z,1.00
2023-04-01T12:09:08.148Z,1.00
2023-04-01T12:12:09.580Z,1.00
2023-04-01T12:14:48.616Z,1.00
2023-04-01T12:17:39.476Z,1.00
2023-04-01T12:20:13.213Z,1.00
2023-04-01T12:23:23.116Z,1.00
2023-04-01T12:26:14.713Z,99.90
2023-04-01T12:29:10.601Z,1.00
2023-04-01T12:31:47.251Z,1.00
2023-04-01T12:34:53.870Z,99.90
2023-04-01T12:37:47.001Z,1.00
2023-04-01T12:40:39.310Z,1.00
2023-04-01T12:43:24.950Z,1.00
2023-04-01T12:46:26.950Z,1.00
2023-04-01T12:49:23.857Z,1.00
2023-04-01T12:52:29.190Z,1.00
2023-04-01T12:55:12.902Z,60.80
2023-04-01T12:58:19.599Z,99.90
2023-04-01T13:01:02.667Z,1.00
2023-04-01T13:04:02.376Z,1.00
2023-04-01T13:06:59.725Z,1.00
2023-04-01T13:10:08.528Z,25.00
2023-04-01T13:12:45.392Z,1.00
2023-04-01T13:15:25.419Z,1.00
2023-04-01T13:18:18.464Z,1.00
2023-04-01T13:21:01.264Z,1.00
2023-04-01T13:23:46.247Z,1.00
2023-04-01T13:26:37.940Z,1.00
2023-04-01T13:29:26.675Z,99.90
2023-04-01T13:32:19.458Z,1.00
2023-04-01T13:35:06.061Z,1.00
2023-04-01T13:37:52.472Z,94.00
2023-04-01T13:41:02.392Z,1.00
2023-04-01T13:43:40.764Z,1.00
2023-04-01T13:46:35.314Z,99.90
2023-04-01T13:49:06.041Z,1.00
2023-04-01T13:51:53.298Z,99.90
2023-04-01T13:55:06.812Z,25.90
2023-04-01T13:57:49.196Z,99.90
2023-04-01T14:00:36.290Z,99.90
2023-04-01T14:03:26.943Z,1.00
2023-04-01T14:06:07.345Z,1.00
2023-04-01T14:09:03.858Z,1.00
2023-04-01T14:11:46.651Z,1.00
2023-04-01T14:14:45.504Z,1.00
2023-04-01T14:17:32.005Z,99.90
2023-04-01T14:20:21.397Z,1.00
2023-04-01T14:23:04.970Z,1.00
2023-04-01T14:25:48.360Z,99.90
2023-04-01T14:28:15.903Z,1.00
2023-04-01T14:30:43.500Z,99.90
2023-04-01T14:33:50.321Z,99.90
2023-04-01T14:36:26.857Z,99.90
2023-04-01T14:39:13.106Z,1.00
2023-04-01T14:41:48.860Z,1.00
2023-04-01T14:44:53.199Z,1.00
2023-04-01T14:47:37.750Z,99.90
2023-04-01T14:50:14.433Z,1.00
2023-04-01T14:52:56.725Z,99.90
2023-04-01T14:55:39.757Z,1.00
2023-04-01T14:58:13.952Z,99.90
2023-04-01T15:00:57.335Z,1.00
2023-04-01T15:03:58.821Z,1.00
2023-04-01T15:07:06.331Z,9.60
2023-04-01T15:09:52.709Z,99.90
2023-04-01T15:12:48.706Z,1.00
2023-04-01T15:15:35.677Z,99.90
2023-04-01T15:18:15.153Z,20.50
2023-04-01T15:21:13.253Z,1.00
2023-04-01T15:23:58.973Z,1.00
2023-04-01T15:26:29.288Z,1.00
2023-04-01T15:29:18.203Z,1.00
2023-04-01T15:32:15.515Z,1.00
2023-04-01T15:35:07.911Z,1.00
2023-04-01T15:38:03.525Z,1.00
2023-04-01T15:40:44.966Z,1.00
2023-04-01T15:43:22.958Z,1.00
2023-04-01T15:45:57.555Z,99.90
2023-04-01T15:48:27.332Z,1.00
2023-04-01T15:51:01.159Z,1.00
2023-04-01T15:54:03.960Z,1.00
2023-04-01T15:56:33.951Z,99.90
2023-04-01T15:59:15.883Z,1.00
2023-04-01T16:02:14.577Z,33.90
2023-04-01T16:05:09.714Z,99.90
2023-04-01T16:07:56.030Z,1.00
2023-04-01T16:10:58.586Z,1.00
2023-04-01T16:13:43.855Z,1.00
2023-04-01T16:16:30.564Z,1.00
2023-04-01T16:19:11.275Z,1.00
2023-04-01T16:22:12.565Z,1.00
2023-04-01T16:24:46.615Z,1.00
2023-04-01T16:27:22.865Z,1.00
2023-04-01T16:30:01.398Z,1.00
2023-04-01T16:32:52.735Z,1.00
2023-04-01T16:35:56.781Z,99.90
2023-04-01T16:38:39.215Z,99.90
2023-04-01T16:41:35.522Z,99.90
2023-04-01T16:44:20.720Z,99.90
2023-04-01T16:46:57.200Z,1.00
2023-04-01T16:49:38.959Z,1.00
2023-04-01T16:52:09.586Z,1.00
2023-04-01T16:54:48.587Z,1.00
2023-04-01T16:57:26.603Z,1.00
2023-04-01T17:00:13.511Z,1.00
2023-04-01T17:02:50.964Z,12.10
2023-04-01T17:05:19.096Z,16.00
2023-04-01T17:08:16.180Z,1.00
2023-04-01T17:11:11.756Z,1.00
2023-04-01T17:13:58.693Z,1.00
2023-04-01T17:16:48.194Z,1.00
2023-04-01T17:19:34.611Z,1.00
2023-04-01T17:22:11.003Z,1.00
2023-04-01T17:25:06.406Z,1.00
2023-04-01T17:27:49.418Z,1.00
2023-04-01T17:30:46.926Z,1.00
2023-04-01T17:33:51.315Z,1.00
2023-04-01T17:36:40.063Z,1.00
2023-04-01T17:40:07.097Z,1.00
2023-04-01T17:42:52.995Z,1.00
2023-04-01T17:45:50.294Z,1.00
2023-04-01T17:48:47.573Z,1.00
2023-04-01T17:51:34.704Z,1.00
2023-04-01T17:54:18.940Z,1.00
2023-04-01T17:57:06.841Z,9.70
2023-04-01T17:59:45.200Z,20.00
2023-04-01T18:02:18.841Z,27.40
2023-04-01T18:05:11.349Z,63.20
2023-04-01T18:07:48.349Z,46.70
2023-04-01T18:10:19.045Z,46.50
2023-04-01T18:13:05.489Z,90.40
2023-04-01T18:15:39.052Z,99.90
2023-04-01T18:18:09.663Z,99.90
2023-04-01T18:21:02.057Z,99.90
2023-04-01T18:23:49.422Z,99.90
2023-04-01T18:26:26.466Z,99.90
2023-04-01T18:29:23.269Z,99.90
2023-04-01T18:31:56.291Z,99.90
2023-04-01T18:34:55.218Z,99.90
2023-04-01T18:37:34.909Z,99.90
2023-04-01T18:40:27.426Z,99.90
2023-04-01T18:43:38.618Z,99.90
2023-04-01T18:46:20.697Z,99.90
2023-04-01T18:49:16.509Z,99.90
2023-04-01T18:51:54.782Z,99.90
2023-04-01T18:54:43.545Z,99.90
2023-04-01T18:57:16.259Z,99.90
2023-04-01T18:59:51.634Z,99.90
2023-04-01T19:02:42.425Z,99.90
2023-04-01T19:05:33.006Z,99.90
2023-04-01T19:08:15.932Z,99.90
2023-04-01T19:10:49.242Z,99.90
2023-04-01T19:13:23.755Z,99.90
2023-04-01T19:16:06.060Z,99.90
2023-04-01T19:18:42.688Z,99.90
2023-04-01T19:21:13.144Z,99.90
2023-04-01T19:23:54.796Z,99.90
2023-04-01T19:26:31.254Z,99.90
2023-04-01T19:29:21.555Z,99.90
2023-04-01T19:32:14.055Z,99.90
2023-04-01T19:34:55.747Z,99.90
2023-04-01T19:37:52.636Z,99.90
2023-04-01T19:40:38.471Z,99.90
2023-04-01T19:43:14.645Z,99.90
2023-04-01T19:45:50.264Z,99.90
2023-04-01T19:48:29.569Z,99.90
2023-04-01T19:51:04.161Z,99.90
2023-04-01T19:53:31.699Z,99.90
2023-04-01T19:56:18.704Z,99.90
2023-04-01T19:59:16.182Z,99.90
2023-04-01T20:02:01.311Z,99.90
2023-04-01T20:04:49.463Z,99.90
2023-04-01T20:07:38.055Z,99.90
2023-04-01T20:10:21.684Z,99.90
2023-04-01T20:13:00.608Z,99.90
2023-04-01T20:15:34.324Z,99.90
2023-04-01T20:18:07.141Z,99.90
2023-04-01T20:20:36.117Z,99.90
2023-04-01T20:23:43.934Z,99.90
2023-04-01T20:26:20.465Z,99.90
2023-04-01T20:29:08.723Z,99.90
2023-04-01T20:32:04.715Z,99.90
2023-04-01T20:35:00.274Z,99.90
2023-04-01T20:37:42.989Z,99.90
2023-04-01T20:40:10.655Z,99.90
2023-04-01T20:43:09.749Z,99.90
2023-04-01T20:45:56.144Z,99.90
2023-04-01T20:48:27.326Z,99.90
2023-04-01T20:51:07.972Z,99.90
2023-04-01T20:53:51.627Z,99.90
2023-04-01T20:56:28.188Z,99.90
2023-04-01T20:59:13.876Z,99.90
2023-04-01T21:02:18.991Z,99.90
2023-04-01T21:05:05.528Z,99.90
2023-04-01T21:07:45.600Z,99.90
2023-04-01T21:10:19.036Z,99.90
2023-04-01T21:13:14.796Z,99.90
2023-04-01T21:15:42.376Z,99.90
2023-04-01T21:18:38.227Z,99.90
2023-04-01T21:21:37.992Z,99.90
2023-04-01T21:24:14.676Z,99.90
2023-04-01T21:27:11.202Z,99.90
2023-04-01T21:29:47.962Z,99.90
2023-04-01T21:32:53.687Z,99.90
2023-04-01T21:35:42.350Z,99.90
2023-04-01T21:38:47.525Z,99.90
2023-04-01T21:41:39.413Z,99.90
2023-04-01T21:44:19.577Z,99.90
2023-04-01T21:46:56.156Z,99.90
2023-04-01T21:50:05.245Z,99.90
2023-04-01T21:52:42.424Z,99.90
2023-04-01T21:55:51.177Z,99.90
2023-04-01T21:58:36.959Z,99.90
2023-04-01T22:01:18.500Z,99.90
2023-04-01T22:04:24.749Z,99.90
2023-04-01T22:07:06.255Z,99.90
2023-04-01T22:09:46.854Z,99.90
2023-04-01T22:12:44.903Z,99.90
2023-04-01T22:15:21.258Z,99.90
2023-04-01T22:18:07.793Z,99.90
2023-04-01T22:20:46.105Z,99.90
2023-04-01T22:23:13.852Z,99.90
2023-04-01T22:26:08.434Z,99.90
2023-04-01T22:28:42.577Z,99.90
2023-04-01T22:31:15.492Z,99.90
2023-04-01T22:33:55.149Z,99.90
2023-04-01T22:36:34.471Z,99.90
2023-04-01T22:39:07.727Z,99.90
2023-04-01T22:41:56.493Z,99.90
2023-04-01T22:44:43.490Z,99.90
2023-04-01T22:47:16.098Z,99.90
2023-04-01T22:49:58.900Z,99.90
2023-04-01T22:52:36.353Z,99.90
2023-04-01T22:55:23.162Z,99.90
2023-04-01T22:57:59.063Z,99.90
2023-04-01T23:01:00.656Z,99.90
2023-04-01T23:03:31.231Z,99.90
2023-04-01T23:06:04.841Z,99.90
2023-04-01T23:08:51.884Z,99.90
2023-04-01T23:11:21.355Z,99.90
2023-04-01T23:14:11.721Z,99.90
2023-04-01T23:16:46.668Z,99.90
2023-04-01T23:19:23.523Z,99.90
2023-04-01T23:22:13.691Z,99.90
2023-04-01T23:24:55.393Z,99.90
2023-04-01T23:27:38.114Z,99.90
2023-04-01T23:30:41.208Z,99.90
2023-04-01T23:33:21.106Z,99.90
2023-04-01T23:35:48.725Z,99.90
2023-04-01T23:38:17.901Z,99.90
2023-04-01T23:40:51.173Z,99.90
2023-04-01T23:43:35.139Z,99.90
2023-04-01T23:46:04.964Z,99.90
2023-04-01T23:48:37.599Z,99.90
2023-04-01T23:51:11.464Z,99.90
2023-04-01T23:53:45.684Z,99.90
2023-04-01T23:56:13.929Z,99.90
2023-04-01T23:58:49.152Z,99.90
